Nelspruit, South Africa
Current Conditions -  °F | °C
As of 2:00 PM on Sunday 21 Dec 2014 (Local Time) from FAKN Reporting Station
Broken Clouds Broken Clouds  
Wind Chill: 81°   Ceiling: 2000
Heat Index: 83°   Visibility: 6mi
Dew Point: 68°   Wind: 5mph
Humidity: 65%   Direction: 70°ENE
Pressure: 29.97"   Gusts: NA
Location:  25.47°S, 30.99°E
Report Text: FAKN 211200Z 07004KT 9999 BKN020 27/20 Q1015 NOSIG
Loading
Personal Weather Stations






























Interactive Weather Map New forecast layout! Learn more

10-Day Weather Forecast

Advertisements
Track Severe Weather on mobile